Time;durP1;ratioP1;P1;durP2;ratioP2;P2;SDS_P1;SDS_P2;PMS_P1;PMS_P2;Temp;Humidity;BMP_temperature;BMP_pressure;BME280_temperature;BME280_humidity;BME280_pressure;Samples;Min_cycle;Max_cycle;Signal;HPM_P1;HPM_P2
2021/09/08 00:02:20;;;;;;;31.13;16.08;;;;;;;14.65;73.25;101198.50;5032721;28;20087;-65
2021/09/08 00:04:45;;;;;;;27.05;13.50;;;;;;;14.62;72.59;101189.81;5032413;28;20041;-64
2021/09/08 00:07:11;;;;;;;23.33;12.20;;;;;;;14.66;72.47;101200.22;5032367;28;20072;-65
2021/09/08 00:09:36;;;;;;;20.80;12.20;;;;;;;14.66;72.45;101202.91;5030592;28;20045;-65
2021/09/08 00:12:03;;;;;;;19.77;11.77;;;;;;;14.62;72.48;101189.81;5031949;28;20104;-65
2021/09/08 00:14:28;;;;;;;19.27;11.38;;;;;;;14.60;72.52;101183.69;5023693;28;20486;-65
2021/09/08 00:16:55;;;;;;;18.67;10.85;;;;;;;14.68;72.75;101194.66;5012223;28;20112;-65
2021/09/08 00:19:20;;;;;;;19.63;10.52;;;;;;;14.68;73.11;101200.94;5011290;28;20037;-65
2021/09/08 00:21:46;;;;;;;18.02;10.10;;;;;;;14.61;73.31;101186.25;5010811;28;20045;-65
2021/09/08 00:24:11;;;;;;;19.30;9.23;;;;;;;14.70;73.45;101200.81;5011898;28;20072;-65
2021/09/08 00:26:37;;;;;;;14.45;9.52;;;;;;;14.67;73.22;101190.28;5012069;28;20036;-65
2021/09/08 00:29:02;;;;;;;14.40;8.85;;;;;;;14.74;72.39;101194.13;5012021;28;20033;-66
2021/09/08 00:31:27;;;;;;;12.68;8.57;;;;;;;14.78;72.07;101198.25;5011913;28;20037;-65
2021/09/08 00:33:53;;;;;;;13.07;8.27;;;;;;;14.81;71.44;101188.03;5012140;28;20022;-65
2021/09/08 00:36:18;;;;;;;13.40;9.70;;;;;;;14.82;70.95;101189.72;5029377;28;20087;-65
2021/09/08 00:38:44;;;;;;;13.40;8.63;;;;;;;14.86;70.73;101196.53;5031898;28;20156;-65
2021/09/08 00:41:09;;;;;;;12.43;8.60;;;;;;;14.86;70.99;101188.44;5031939;28;20041;-65
2021/09/08 00:43:35;;;;;;;18.38;8.18;;;;;;;14.89;70.74;101195.41;5031909;28;20056;-66
2021/09/08 00:46:01;;;;;;;13.55;8.00;;;;;;;14.95;70.73;101200.25;5022664;28;20034;-65
2021/09/08 00:48:27;;;;;;;12.52;9.10;;;;;;;14.97;70.00;101201.81;5012220;28;20036;-65
2021/09/08 00:50:52;;;;;;;16.20;8.85;;;;;;;14.97;69.28;101193.72;5012154;28;20029;-66
2021/09/08 00:53:20;;;;;;;13.90;8.20;;;;;;;15.03;68.81;101205.81;5011836;28;20076;-67
2021/09/08 00:55:47;;;;;;;11.73;8.32;;;;;;;15.03;68.88;101197.69;5011956;28;20525;-67
2021/09/08 00:58:13;;;;;;;12.68;8.32;;;;;;;15.06;68.77;101190.16;5011969;28;20530;-67
2021/09/08 01:00:39;;;;;;;15.35;8.68;;;;;;;15.10;68.24;101201.53;5011766;28;20038;-65
2021/09/08 01:03:05;;;;;;;10.75;7.72;;;;;;;15.12;67.92;101194.16;5011792;28;20041;-65
2021/09/08 01:05:31;;;;;;;12.32;8.80;;;;;;;15.15;68.34;101192.00;5010984;28;20034;-65
2021/09/08 01:07:56;;;;;;;12.13;8.40;;;;;;;15.14;68.47;101189.44;5011606;28;20092;-65
2021/09/08 01:10:28;;;;;;;16.90;8.70;;;;;;;15.15;68.42;101193.84;5011461;28;20069;-65
2021/09/08 01:12:54;;;;;;;11.02;8.50;;;;;;;15.12;68.22;101184.19;5011631;28;20030;-65
2021/09/08 01:15:19;;;;;;;12.02;7.97;;;;;;;15.18;67.68;101194.41;5011782;28;20021;-65
2021/09/08 01:17:45;;;;;;;14.05;8.00;;;;;;;15.17;67.61;101190.03;5011402;28;20026;-65
2021/09/08 01:20:13;;;;;;;11.10;8.07;;;;;;;15.15;67.49;101188.44;5011445;28;20030;-66
2021/09/08 01:22:44;;;;;;;13.07;7.63;;;;;;;15.21;67.54;101190.56;5011421;28;20030;-65
2021/09/08 01:25:09;;;;;;;11.70;8.15;;;;;;;15.21;67.78;101187.88;5011150;28;20486;-65
2021/09/08 01:27:35;;;;;;;15.68;8.98;;;;;;;15.17;67.37;101181.06;5011512;28;20037;-65
2021/09/08 01:30:00;;;;;;;11.57;7.90;;;;;;;15.15;67.47;101183.03;5011305;28;20099;-65
2021/09/08 01:32:33;;;;;;;15.43;8.32;;;;;;;15.23;66.31;101199.41;5010165;28;20053;-65
2021/09/08 01:34:59;;;;;;;15.60;8.40;;;;;;;15.14;66.54;101187.59;5014972;28;20029;-65
2021/09/08 01:37:24;;;;;;;10.43;7.70;;;;;;;15.22;66.05;101203.09;5031046;28;20052;-65
2021/09/08 01:39:50;;;;;;;16.90;7.97;;;;;;;15.16;65.53;101191.00;5030990;28;20029;-65
2021/09/08 01:42:15;;;;;;;15.98;8.13;;;;;;;15.21;65.39;101198.69;5030753;28;20156;-65
2021/09/08 01:44:41;;;;;;;11.57;8.63;;;;;;;15.23;65.59;101199.41;5030376;28;20018;-65
2021/09/08 01:47:06;;;;;;;11.00;7.15;;;;;;;15.15;65.17;101183.03;5045606;28;20036;-65
2021/09/08 01:49:32;;;;;;;10.25;7.72;;;;;;;15.17;65.56;101187.31;5030485;28;20029;-65
2021/09/08 01:51:59;;;;;;;14.60;8.38;;;;;;;15.24;65.96;101204.66;5030175;28;20059;-65
2021/09/08 01:54:25;;;;;;;12.23;9.15;;;;;;;15.23;67.16;101199.41;5030392;28;20017;-65
2021/09/08 01:56:50;;;;;;;15.68;9.13;;;;;;;15.22;66.75;101198.53;5030201;28;20036;-65
2021/09/08 01:59:16;;;;;;;13.50;8.70;;;;;;;15.17;66.50;101198.13;5030186;28;20496;-65
2021/09/08 02:01:41;;;;;;;10.60;8.50;;;;;;;15.22;65.90;101201.25;5030230;28;20107;-65
2021/09/08 02:04:07;;;;;;;16.73;9.30;;;;;;;15.14;65.96;101195.72;5045139;28;20040;-65
2021/09/08 02:06:32;;;;;;;12.32;8.98;;;;;;;15.09;65.99;101199.84;5030151;28;20115;-65
2021/09/08 02:09:00;;;;;;;12.38;8.07;;;;;;;15.04;66.26;101208.38;5030113;28;20050;-65
2021/09/08 02:11:27;;;;;;;15.15;8.68;;;;;;;14.99;66.88;101199.81;5030118;28;20021;-65
2021/09/08 02:13:52;;;;;;;15.23;8.68;;;;;;;14.95;67.26;101202.94;5029958;28;20021;-65
2021/09/08 02:16:21;;;;;;;12.82;8.40;;;;;;;14.93;67.48;101215.75;5029786;28;20025;-65
2021/09/08 02:18:48;;;;;;;15.45;9.40;;;;;;;14.89;67.67;101214.31;5029669;28;20036;-65
2021/09/08 02:21:13;;;;;;;12.57;8.07;;;;;;;14.82;67.63;101210.47;5029715;28;20021;-65
2021/09/08 02:23:39;;;;;;;12.55;8.30;;;;;;;14.78;67.36;101206.34;5029726;28;20525;-67
2021/09/08 02:26:05;;;;;;;10.18;7.97;;;;;;;14.71;68.15;101210.59;5029983;28;20039;-67
2021/09/08 02:28:30;;;;;;;14.75;8.65;;;;;;;14.60;67.99;101206.16;5030022;28;20032;-67
2021/09/08 02:30:56;;;;;;;15.00;8.80;;;;;;;14.45;68.78;101191.34;5029971;28;20033;-67
2021/09/08 02:33:22;;;;;;;12.32;8.52;;;;;;;14.48;69.21;101215.34;5044952;28;20535;-67
2021/09/08 02:35:49;;;;;;;15.48;9.10;;;;;;;14.47;69.45;101218.19;5029829;28;20021;-65
2021/09/08 02:38:15;;;;;;;12.93;8.30;;;;;;;14.36;69.43;101210.22;5030158;28;20128;-64
2021/09/08 02:40:41;;;;;;;13.48;9.15;;;;;;;14.32;69.87;101215.03;5029809;28;20117;-65
2021/09/08 02:43:06;;;;;;;14.95;8.95;;;;;;;14.23;70.17;101201.50;5028252;28;20080;-65
2021/09/08 02:45:31;;;;;;;14.02;9.30;;;;;;;14.18;70.60;101212.66;5029715;28;20025;-65
2021/09/08 02:47:57;;;;;;;13.60;9.07;;;;;;;14.17;70.99;101207.41;5029788;28;20079;-65
2021/09/08 02:50:22;;;;;;;16.40;8.65;;;;;;;14.16;71.26;101216.50;5029464;28;20033;-65
2021/09/08 02:52:48;;;;;;;16.98;9.05;;;;;;;14.11;71.21;101214.22;5029609;28;20375;-65
2021/09/08 02:55:13;;;;;;;22.33;8.95;;;;;;;14.05;71.24;101203.94;5029243;28;20371;-65
2021/09/08 02:57:38;;;;;;;16.40;8.65;;;;;;;14.06;71.19;101207.50;5029645;28;20478;-65
2021/09/08 03:00:04;;;;;;;18.60;8.65;;;;;;;14.03;71.13;101214.03;5029047;28;20044;-65
2021/09/08 03:02:30;;;;;;;13.25;8.70;;;;;;;13.94;70.81;101201.34;5017376;28;20038;-64
2021/09/08 03:04:55;;;;;;;14.68;8.75;;;;;;;13.89;71.15;101206.28;5017237;28;20278;-64
2021/09/08 03:07:21;;;;;;;15.18;9.15;;;;;;;13.79;71.35;101202.69;5019462;28;20386;-64
2021/09/08 03:09:46;;;;;;;13.88;8.25;;;;;;;13.79;71.06;101210.78;5015084;28;20053;-64
2021/09/08 03:12:11;;;;;;;14.00;9.43;;;;;;;13.72;70.77;101212.31;5022418;28;20029;-66
2021/09/08 03:14:37;;;;;;;15.68;9.55;;;;;;;13.65;71.30;101224.59;5013086;28;20037;-67
2021/09/08 03:17:02;;;;;;;15.38;9.70;;;;;;;13.57;72.18;101232.47;5011818;28;20045;-67
2021/09/08 03:19:28;;;;;;;12.38;9.18;;;;;;;13.50;72.39;101232.16;5009652;28;20022;-67
2021/09/08 03:21:53;;;;;;;18.75;9.88;;;;;;;13.44;73.31;101237.22;5019152;28;20040;-67
2021/09/08 03:24:19;;;;;;;15.20;9.90;;;;;;;13.34;74.19;101223.69;5020856;28;20482;-67
2021/09/08 03:26:44;;;;;;;13.38;9.68;;;;;;;13.39;74.42;101226.81;5013699;28;20033;-67
2021/09/08 03:29:10;;;;;;;21.10;10.35;;;;;;;13.36;74.75;101226.25;5021358;28;20387;-65
2021/09/08 03:31:35;;;;;;;17.13;9.57;;;;;;;13.31;74.96;101233.84;5024516;28;20033;-65
2021/09/08 03:34:11;;;;;;;15.93;9.55;;;;;;;13.21;75.12;101232.91;5020670;28;20025;-65
2021/09/08 03:36:37;;;;;;;21.23;10.30;;;;;;;13.09;75.65;101224.03;5019698;28;20044;-65
2021/09/08 03:39:03;;;;;;;16.77;10.75;;;;;;;13.12;75.92;101231.00;5019108;28;20025;-65
2021/09/08 03:41:28;;;;;;;15.27;9.25;;;;;;;13.10;76.52;101231.13;5026565;28;20108;-68
2021/09/08 03:43:56;;;;;;;16.30;9.80;;;;;;;13.05;77.04;101219.88;5021226;28;20063;-68
2021/09/08 03:46:22;;;;;;;18.23;9.52;;;;;;;12.99;76.80;101225.78;5011951;28;20052;-65
2021/09/08 03:48:47;;;;;;;26.38;11.02;;;;;;;13.00;76.53;101238.25;5012785;28;20490;-66
2021/09/08 03:51:13;;;;;;;20.52;11.13;;;;;;;12.97;76.79;101234.94;5026298;28;20021;-65
2021/09/08 03:53:38;;;;;;;14.60;8.90;;;;;;;12.92;76.27;101229.94;5032660;28;20030;-66
2021/09/08 03:56:04;;;;;;;13.77;9.07;;;;;;;12.96;76.52;101238.63;5032817;28;20033;-65
2021/09/08 03:58:29;;;;;;;14.93;9.50;;;;;;;12.92;76.78;101240.72;5032380;28;20489;-65
2021/09/08 04:00:55;;;;;;;15.40;9.85;;;;;;;12.91;76.56;101241.72;5026478;28;20508;-65
2021/09/08 04:03:21;;;;;;;15.38;10.02;;;;;;;12.85;76.59;101239.50;5027247;28;20044;-65
2021/09/08 04:05:46;;;;;;;15.68;10.00;;;;;;;12.78;76.55;101241.00;5019023;28;20037;-65
2021/09/08 04:08:13;;;;;;;14.73;9.93;;;;;;;12.73;77.52;101242.34;5024153;28;20482;-65
2021/09/08 04:10:38;;;;;;;19.15;10.05;;;;;;;12.67;78.13;101246.41;5020248;28;20041;-65
2021/09/08 04:13:04;;;;;;;20.92;10.73;;;;;;;12.54;78.19;101232.22;5020520;28;20550;-65
2021/09/08 04:15:29;;;;;;;17.77;10.73;;;;;;;12.53;78.84;101237.75;5023851;28;20839;-65
2021/09/08 04:17:55;;;;;;;18.50;11.02;;;;;;;12.51;78.88;101234.34;5016899;28;20037;-65
2021/09/08 04:20:20;;;;;;;23.17;10.48;;;;;;;12.51;77.95;101245.09;5022994;28;20026;-65
2021/09/08 04:22:46;;;;;;;18.33;9.90;;;;;;;12.50;77.94;101240.69;5012497;28;20193;-67
2021/09/08 04:25:12;;;;;;;22.00;10.88;;;;;;;12.49;78.25;101256.00;5012322;28;20029;-67
2021/09/08 04:27:38;;;;;;;21.55;11.00;;;;;;;12.46;78.36;101256.22;5012370;28;20029;-67
2021/09/08 04:30:05;;;;;;;20.92;10.52;;;;;;;12.45;79.04;101253.66;5012436;28;20486;-67
2021/09/08 04:32:30;;;;;;;15.23;10.00;;;;;;;12.45;78.56;101256.34;5011059;28;20036;-68
2021/09/08 04:34:56;;;;;;;20.02;10.18;;;;;;;12.41;78.00;101254.91;5012076;28;20037;-67
2021/09/08 04:37:21;;;;;;;23.95;11.05;;;;;;;12.35;78.68;101250.84;5010759;28;20025;-68
2021/09/08 04:39:47;;;;;;;26.77;10.55;;;;;;;12.30;79.51;101246.81;5011910;28;20495;-68
2021/09/08 04:42:12;;;;;;;21.08;11.18;;;;;;;12.38;79.76;101263.22;5010959;28;20030;-68
2021/09/08 04:44:38;;;;;;;23.60;10.98;;;;;;;12.38;79.05;101250.59;5012006;28;20025;-67
2021/09/08 04:47:03;;;;;;;20.17;9.90;;;;;;;12.40;78.82;101263.94;5011729;28;20334;-67
2021/09/08 04:49:29;;;;;;;19.77;10.02;;;;;;;12.45;78.77;101257.19;5011858;28;20040;-67
2021/09/08 04:51:54;;;;;;;19.80;10.07;;;;;;;12.44;79.35;101262.69;5011908;28;20580;-66
2021/09/08 04:54:20;;;;;;;20.85;10.40;;;;;;;12.46;79.67;101266.13;5011791;28;20490;-67
2021/09/08 04:56:45;;;;;;;26.58;10.60;;;;;;;12.48;79.90;101259.63;5012254;28;20026;-67
2021/09/08 04:59:11;;;;;;;23.35;11.20;;;;;;;12.56;80.59;101269.78;5018961;28;20104;-68
2021/09/08 05:01:36;;;;;;;33.38;11.55;;;;;;;12.63;80.40;101271.00;5011543;28;20030;-67
2021/09/08 05:04:02;;;;;;;37.63;11.15;;;;;;;12.64;80.17;101267.34;5010842;28;20044;-68
2021/09/08 05:06:27;;;;;;;49.55;12.32;;;;;;;12.68;79.64;101266.97;5009782;28;20030;-68
2021/09/08 05:08:53;;;;;;;49.92;13.27;;;;;;;12.73;79.82;101263.88;5011129;28;20025;-68
2021/09/08 05:11:18;;;;;;;34.90;12.10;;;;;;;12.85;80.58;101287.13;5009614;28;20057;-68
2021/09/08 05:13:44;;;;;;;61.92;13.13;;;;;;;12.92;80.92;101274.84;5010217;28;20542;-65
2021/09/08 05:16:10;;;;;;;56.50;12.65;;;;;;;12.98;80.74;101277.03;5010072;28;20026;-65
2021/09/08 05:18:35;;;;;;;57.53;14.45;;;;;;;13.04;80.18;101273.88;5009168;28;20068;-65
2021/09/08 05:21:01;;;;;;;51.80;12.80;;;;;;;13.10;80.54;101281.47;5010197;28;20132;-65
2021/09/08 05:23:27;;;;;;;28.38;12.85;;;;;;;13.08;81.24;101264.56;5025761;28;20033;-65
2021/09/08 05:25:53;;;;;;;40.15;14.25;;;;;;;13.28;81.29;101285.28;5029745;28;20033;-66
2021/09/08 05:28:20;;;;;;;35.38;16.08;;;;;;;13.33;81.03;101269.63;5029860;28;20112;-66
2021/09/08 05:30:46;;;;;;;53.65;21.50;;;;;;;13.51;81.15;101277.00;5030088;28;20027;-65
2021/09/08 05:33:11;;;;;;;66.05;26.13;;;;;;;13.58;80.75;101283.56;5030279;28;20538;-65
2021/09/08 05:35:37;;;;;;;54.92;24.80;;;;;;;13.69;80.75;101285.34;5030269;28;20100;-65
2021/09/08 05:38:02;;;;;;;55.97;24.17;;;;;;;13.82;80.63;101286.00;5030092;28;20045;-65
2021/09/08 05:40:28;;;;;;;55.20;22.88;;;;;;;14.00;80.94;101286.28;5030076;28;20044;-66
2021/09/08 05:42:53;;;;;;;41.05;18.35;;;;;;;14.09;79.74;101263.91;5029866;28;20083;-66
2021/09/08 05:45:19;;;;;;;37.55;17.67;;;;;;;14.30;79.05;101286.31;5028680;28;20076;-65
2021/09/08 05:47:44;;;;;;;47.67;19.20;;;;;;;14.47;78.50;101286.53;5029931;28;20077;-65
2021/09/08 05:50:10;;;;;;;40.72;16.15;;;;;;;14.65;77.69;101279.53;5015288;28;20022;-65
2021/09/08 05:52:35;;;;;;;34.35;15.60;;;;;;;14.83;76.73;101280.53;5008680;28;20060;-66
2021/09/08 05:55:01;;;;;;;35.97;15.00;;;;;;;15.04;75.91;101288.56;5010258;28;20477;-65
2021/09/08 05:57:26;;;;;;;22.60;13.30;;;;;;;15.24;74.27;101282.19;5008488;28;20052;-65
2021/09/08 05:59:52;;;;;;;20.55;13.07;;;;;;;15.43;73.13;101274.97;5010118;28;20042;-65
2021/09/08 06:02:17;;;;;;;26.88;12.70;;;;;;;15.59;71.83;101275.25;5025834;28;20033;-68
2021/09/08 06:04:43;;;;;;;26.65;12.25;;;;;;;15.84;70.82;101282.75;5030307;28;20044;-68
2021/09/08 06:07:08;;;;;;;22.63;12.50;;;;;;;16.05;69.73;101279.03;5030846;28;20156;-66
2021/09/08 06:09:33;;;;;;;20.48;12.02;;;;;;;16.22;68.52;101270.97;5030679;28;20409;-68
2021/09/08 06:11:59;;;;;;;19.67;11.88;;;;;;;16.49;67.55;101281.91;5030807;28;20482;-67
2021/09/08 06:14:25;;;;;;;22.67;12.20;;;;;;;16.72;66.77;101283.22;5028893;28;20037;-68
2021/09/08 06:16:51;;;;;;;21.35;12.60;;;;;;;16.95;65.02;101279.09;5030184;28;20076;-68
2021/09/08 06:19:16;;;;;;;17.05;11.13;;;;;;;17.11;63.79;101273.84;5030373;28;20083;-68
2021/09/08 06:21:42;;;;;;;25.90;12.20;;;;;;;17.38;62.68;101278.38;5030246;28;20047;-65
2021/09/08 06:24:07;;;;;;;22.15;11.85;;;;;;;17.57;62.35;101279.06;5030241;28;20044;-65
2021/09/08 06:26:33;;;;;;;19.63;11.30;;;;;;;17.73;61.72;101268.34;5030138;28;20025;-65
2021/09/08 06:28:58;;;;;;;18.25;11.25;;;;;;;18.03;60.57;101277.94;5030182;28;20752;-65
2021/09/08 06:31:24;;;;;;;16.20;10.95;;;;;;;18.26;60.13;101279.09;5026964;28;20040;-65
2021/09/08 06:33:50;;;;;;;18.05;10.38;;;;;;;18.47;59.71;101276.84;5025663;28;20197;-66
2021/09/08 06:36:17;;;;;;;20.05;11.68;;;;;;;18.67;58.58;101272.88;5029742;28;20100;-66
2021/09/08 06:38:42;;;;;;;18.55;10.30;;;;;;;18.78;57.83;101264.44;5023789;28;20030;-66
2021/09/08 06:41:08;;;;;;;21.52;10.98;;;;;;;19.06;57.64;101276.75;5008856;28;20028;-66
2021/09/08 06:43:33;;;;;;;22.65;11.25;;;;;;;19.22;56.92;101273.22;5009983;28;20030;-66
2021/09/08 06:45:59;;;;;;;18.45;10.60;;;;;;;19.47;56.38;101281.28;5009802;28;20041;-66
2021/09/08 06:48:24;;;;;;;18.55;10.18;;;;;;;19.64;55.49;101272.09;5009505;28;20034;-66
2021/09/08 06:50:49;;;;;;;16.02;9.75;;;;;;;19.86;54.74;101278.72;5008479;28;20029;-67
2021/09/08 06:53:15;;;;;;;16.05;9.68;;;;;;;20.05;53.62;101279.25;5009924;28;20022;-66
2021/09/08 06:55:41;;;;;;;16.77;9.75;;;;;;;20.27;53.29;101280.41;5010075;28;20053;-66
2021/09/08 06:58:06;;;;;;;14.80;8.93;;;;;;;20.36;52.46;101265.75;5009967;28;20041;-66
2021/09/08 07:00:32;;;;;;;15.98;9.55;;;;;;;20.62;51.89;101279.13;5009890;28;20030;-66
2021/09/08 07:02:58;;;;;;;13.50;8.95;;;;;;;20.79;51.27;101280.78;5010473;28;20034;-64
2021/09/08 07:05:24;;;;;;;11.68;8.75;;;;;;;20.96;50.94;101276.97;5012728;28;20034;-63
2021/09/08 07:07:50;;;;;;;17.23;9.23;;;;;;;21.08;50.72;101273.66;5013762;28;20030;-63
2021/09/08 07:10:16;;;;;;;17.52;10.18;;;;;;;21.32;50.28;101281.72;5013641;28;20137;-64
2021/09/08 07:12:42;;;;;;;13.25;9.10;;;;;;;21.54;49.59;101285.47;5013655;28;20034;-64
2021/09/08 07:15:08;;;;;;;15.57;8.85;;;;;;;21.72;48.83;101284.13;5013696;28;20080;-64
2021/09/08 07:17:33;;;;;;;17.58;9.00;;;;;;;21.94;47.96;101282.44;5012243;28;20057;-64
2021/09/08 07:19:59;;;;;;;16.50;8.07;;;;;;;22.12;47.25;101289.25;5013767;28;20440;-64
2021/09/08 07:22:24;;;;;;;13.38;7.88;;;;;;;22.30;47.04;101286.19;5013532;28;20049;-65
2021/09/08 07:24:49;;;;;;;12.82;7.60;;;;;;;22.52;46.41;101281.69;5013292;28;20502;-65
2021/09/08 07:27:15;;;;;;;13.38;7.55;;;;;;;22.68;45.00;101270.56;5013376;28;20532;-64
2021/09/08 07:29:40;;;;;;;9.68;6.97;;;;;;;22.91;44.73;101283.09;5013205;28;20029;-64
2021/09/08 07:32:08;;;;;;;12.82;7.75;;;;;;;23.12;44.27;101290.53;5013427;28;20038;-65
2021/09/08 07:34:34;;;;;;;11.45;7.47;;;;;;;23.27;43.97;101283.13;5013479;28;20502;-65
2021/09/08 07:36:59;;;;;;;15.35;7.65;;;;;;;23.37;43.84;101269.97;5013270;28;20022;-65
2021/09/08 07:39:25;;;;;;;14.93;7.20;;;;;;;23.56;43.62;101291.25;5013227;28;20024;-65
2021/09/08 07:41:50;;;;;;;12.68;7.57;;;;;;;23.71;43.45;101287.41;5013043;28;20032;-65
2021/09/08 07:44:16;;;;;;;17.05;7.30;;;;;;;23.89;43.26;101285.03;5018037;28;20037;-65
2021/09/08 07:46:41;;;;;;;12.77;7.22;;;;;;;24.03;41.73;101273.19;5032682;28;20025;-65
2021/09/08 07:49:07;;;;;;;11.43;7.30;;;;;;;24.20;41.59;101273.72;5032856;28;20021;-65
2021/09/08 07:51:32;;;;;;;16.10;8.30;;;;;;;24.41;41.07;101287.41;5032755;28;20030;-64
2021/09/08 07:53:59;;;;;;;15.68;6.95;;;;;;;24.56;40.61;101276.31;5033176;28;20516;-67
2021/09/08 07:56:25;;;;;;;16.50;7.10;;;;;;;24.80;40.42;101275.84;5026456;28;20133;-67
2021/09/08 07:58:51;;;;;;;12.88;6.72;;;;;;;25.14;40.07;101286.75;5012964;28;20030;-67
2021/09/08 08:01:16;;;;;;;18.25;7.05;;;;;;;25.59;39.12;101289.66;5015596;28;20438;-67
2021/09/08 08:03:42;;;;;;;19.27;7.07;;;;;;;26.19;37.81;101267.53;5012041;28;20029;-67
2021/09/08 08:06:07;;;;;;;13.35;7.15;;;;;;;26.91;36.31;101281.13;5013338;28;20025;-67
2021/09/08 08:08:32;;;;;;;12.57;5.82;;;;;;;27.66;33.66;101267.41;5032047;28;20104;-67
2021/09/08 08:10:58;;;;;;;10.48;5.50;;;;;;;28.67;32.56;101266.13;5032576;28;20095;-67
2021/09/08 08:13:24;;;;;;;13.07;6.07;;;;;;;29.83;30.88;101267.56;5032851;28;20029;-67
2021/09/08 08:15:49;;;;;;;10.55;5.15;;;;;;;30.97;29.32;101265.91;5031256;28;20025;-68
2021/09/08 08:18:15;;;;;;;12.63;6.03;;;;;;;31.95;27.71;101258.16;5032747;28;20033;-68
2021/09/08 08:20:40;;;;;;;12.30;5.07;;;;;;;32.86;26.61;101255.69;5032593;28;20101;-68
2021/09/08 08:23:06;;;;;;;7.82;5.00;;;;;;;33.66;25.43;101247.47;5032878;28;20095;-67
2021/09/08 08:25:32;;;;;;;8.98;5.25;;;;;;;34.44;24.70;101248.41;5032170;28;20053;-67
2021/09/08 08:28:01;;;;;;;7.40;4.85;;;;;;;34.95;23.66;101248.75;5032416;28;20478;-67
2021/09/08 08:30:28;;;;;;;14.80;5.32;;;;;;;35.50;23.21;101258.16;5018670;28;20089;-67
2021/09/08 08:32:54;;;;;;;9.68;5.00;;;;;;;35.72;22.92;101236.41;5025733;28;20025;-67
2021/09/08 08:35:20;;;;;;;9.10;4.28;;;;;;;36.13;22.27;101238.09;5030049;28;20130;-67
2021/09/08 08:37:46;;;;;;;6.90;3.97;;;;;;;36.48;21.18;101245.63;5012462;28;20030;-67
2021/09/08 08:40:12;;;;;;;8.35;4.00;;;;;;;36.67;20.75;101238.31;5012804;28;20072;-67
2021/09/08 08:42:38;;;;;;;9.70;4.10;;;;;;;36.98;20.83;101248.31;5011297;28;20030;-67
2021/09/08 08:45:06;;;;;;;5.80;3.20;;;;;;;37.18;20.37;101233.34;5012531;28;20490;-67
2021/09/08 08:47:33;;;;;;;6.38;3.58;;;;;;;37.19;20.13;101240.66;5012454;28;20596;-67
2021/09/08 08:49:59;;;;;;;6.55;3.75;;;;;;;37.00;20.52;101236.81;5024153;28;20091;-68
2021/09/08 08:52:24;;;;;;;9.57;3.53;;;;;;;36.77;20.67;101237.44;5031967;28;20029;-67
2021/09/08 08:54:50;;;;;;;8.20;4.10;;;;;;;36.34;20.95;101239.78;5031954;28;20156;-68
2021/09/08 08:57:16;;;;;;;10.63;4.30;;;;;;;35.77;21.34;101235.56;5031754;28;20044;-68
2021/09/08 08:59:44;;;;;;;9.52;3.63;;;;;;;35.11;22.05;101248.53;5031363;28;20022;-68
2021/09/08 09:02:23;;;;;;;7.22;4.22;;;;;;;34.39;22.59;101247.56;5012338;28;20060;-68
2021/09/08 09:04:51;;;;;;;9.25;3.40;;;;;;;33.60;22.93;101249.38;5012039;28;20033;-68
2021/09/08 09:07:30;;;;;;;6.68;3.78;;;;;;;33.12;24.05;101245.72;5010634;28;20029;-68
2021/09/08 09:10:07;;;;;;;6.03;3.20;;;;;;;32.55;24.66;101239.66;5011903;28;20495;-68
2021/09/08 09:12:35;;;;;;;6.18;3.88;;;;;;;32.01;25.28;101246.84;5027124;28;20032;-68
2021/09/08 09:15:06;;;;;;;7.00;3.50;;;;;;;31.57;25.96;101250.50;5012013;28;20025;-65
2021/09/08 09:17:33;;;;;;;6.55;3.50;;;;;;;31.29;26.18;101253.28;5011572;28;20507;-65
2021/09/08 09:20:08;;;;;;;8.02;3.80;;;;;;;30.92;26.36;101240.88;5011828;28;20041;-65
2021/09/08 09:22:37;;;;;;;8.45;3.65;;;;;;;30.62;26.63;101245.69;5011753;28;20117;-68
2021/09/08 09:25:04;;;;;;;10.60;3.80;;;;;;;30.26;26.83;101246.81;5010323;28;20111;-65
2021/09/08 09:27:36;;;;;;;5.53;3.63;;;;;;;30.01;27.61;101235.09;5010921;28;20532;-65
2021/09/08 09:30:08;;;;;;;4.93;3.47;;;;;;;29.90;28.20;101248.91;5011512;28;20439;-65
2021/09/08 09:32:35;;;;;;;7.05;3.90;;;;;;;29.68;27.75;101232.03;5011519;28;20051;-65
2021/09/08 09:35:01;;;;;;;8.82;3.83;;;;;;;29.50;27.51;101240.38;5011686;28;20477;-65
2021/09/08 09:37:31;;;;;;;11.65;4.22;;;;;;;29.27;28.12;101233.94;5011498;28;20053;-65
2021/09/08 09:40:01;;;;;;;5.40;3.35;;;;;;;29.12;28.55;101230.75;5011468;28;20595;-65
2021/09/08 09:42:31;;;;;;;7.47;3.70;;;;;;;28.93;28.58;101227.13;5011199;28;20049;-65
2021/09/08 09:45:03;;;;;;;4.85;3.42;;;;;;;28.86;29.13;101233.81;5011263;28;20113;-65
2021/09/08 09:47:33;;;;;;;7.60;3.72;;;;;;;28.70;29.28;101215.97;5009941;28;20033;-65
2021/09/08 09:49:59;;;;;;;8.90;3.88;;;;;;;28.69;29.55;101232.75;5011274;28;20074;-65
2021/09/08 09:52:24;;;;;;;10.18;3.63;;;;;;;28.57;28.95;101231.81;5011337;28;20076;-65
2021/09/08 09:54:53;;;;;;;7.68;3.53;;;;;;;28.51;28.86;101219.78;5011626;28;20022;-66
2021/09/08 09:57:19;;;;;;;6.20;4.10;;;;;;;28.41;29.07;101217.50;5011059;28;20434;-66
2021/09/08 09:59:45;;;;;;;5.07;3.72;;;;;;;28.35;29.71;101226.72;5026201;28;20064;-66
2021/09/08 10:02:12;;;;;;;6.38;3.33;;;;;;;28.26;29.56;101221.72;5011101;28;20517;-65
2021/09/08 10:04:37;;;;;;;12.48;4.22;;;;;;;28.13;29.71;101203.41;5014666;28;20079;-65
2021/09/08 10:07:06;;;;;;;6.10;3.60;;;;;;;28.07;29.43;101209.81;5030775;28;20045;-66
2021/09/08 10:09:33;;;;;;;4.05;3.33;;;;;;;27.98;29.73;101204.78;5030394;28;20056;-66
2021/09/08 10:12:02;;;;;;;5.88;4.00;;;;;;;27.86;30.50;101190.91;5030679;28;20489;-66
2021/09/08 10:14:31;;;;;;;5.82;3.35;;;;;;;27.85;30.18;101197.50;5010362;28;20033;-66
2021/09/08 10:17:02;;;;;;;9.10;3.85;;;;;;;27.75;30.35;101193.53;5008859;28;20060;-66
2021/09/08 10:19:29;;;;;;;6.05;3.72;;;;;;;27.71;30.75;101201.41;5007025;28;20048;-65
2021/09/08 10:22:08;;;;;;;10.82;4.20;;;;;;;27.65;29.77;101196.78;5009759;28;20084;-65
2021/09/08 10:24:34;;;;;;;6.75;3.67;;;;;;;27.61;29.80;101183.69;5008933;28;20557;-65
2021/09/08 10:27:00;;;;;;;6.70;3.50;;;;;;;27.54;29.66;101188.41;5009219;28;20096;-65
2021/09/08 10:29:29;;;;;;;7.22;3.80;;;;;;;27.45;29.70;101192.50;5021061;28;20475;-65
2021/09/08 10:31:58;;;;;;;5.53;3.85;;;;;;;27.44;29.97;101191.66;5010358;28;20044;-65
2021/09/08 10:34:24;;;;;;;10.05;4.22;;;;;;;27.38;30.06;101191.72;5010277;28;20105;-65
2021/09/08 10:36:50;;;;;;;7.78;4.07;;;;;;;27.31;30.31;101177.13;5008995;28;20116;-65
2021/09/08 10:39:18;;;;;;;4.88;3.72;;;;;;;27.25;30.02;101178.88;5013201;28;20504;-66
2021/09/08 10:41:51;;;;;;;7.65;4.30;;;;;;;27.19;29.72;101176.97;5014528;28;20108;-65
2021/09/08 10:44:39;;;;;;;6.50;3.72;;;;;;;27.14;30.20;101174.03;5014482;28;20030;-66
2021/09/08 10:47:04;;;;;;;5.22;3.95;;;;;;;27.06;30.42;101159.66;5014276;28;20025;-66
2021/09/08 10:49:39;;;;;;;8.38;4.13;;;;;;;27.09;30.73;101171.09;5014232;28;20492;-65
2021/09/08 10:52:07;;;;;;;7.95;4.07;;;;;;;27.05;30.58;101167.09;5014498;28;20037;-66
2021/09/08 10:54:52;;;;;;;6.38;3.47;;;;;;;27.04;30.42;101156.28;5014401;28;20030;-65
2021/09/08 10:57:49;;;;;;;5.97;3.67;;;;;;;27.09;30.33;101170.25;5029261;28;20133;-65
2021/09/08 11:00:21;;;;;;;7.03;3.60;;;;;;;27.03;30.58;101149.09;5013940;28;20104;-65
2021/09/08 11:02:47;;;;;;;6.28;3.70;;;;;;;27.19;30.67;101165.94;5014421;28;20034;-65
2021/09/08 11:05:13;;;;;;;7.45;3.50;;;;;;;27.21;30.98;101160.22;5014054;28;20038;-66
2021/09/08 11:07:39;;;;;;;4.63;3.45;;;;;;;27.25;30.32;101161.50;5014214;28;20029;-65
2021/09/08 11:10:06;;;;;;;5.72;3.85;;;;;;;27.17;30.35;101142.44;5013739;28;20474;-65
2021/09/08 11:12:49;;;;;;;6.20;3.67;;;;;;;27.19;30.35;101156.84;5020856;28;20489;-65
2021/09/08 11:15:18;;;;;;;9.30;3.92;;;;;;;27.12;30.41;101154.13;5032276;28;20549;-66